Time;durP1;ratioP1;P1;durP2;ratioP2;P2;SDS_P1;SDS_P2;PMS_P1;PMS_P2;Temp;Humidity;BMP_temperature;BMP_pressure;BME280_temperature;BME280_humidity;BME280_pressure;Samples;Min_cycle;Max_cycle;Signal;HPM_P1;HPM_P2
2021/01/31 00:00:14;;;;;;;6.70;6.20;;;4.60;99.90;;;;;;5076194;28;20886;-71
2021/01/31 00:02:39;;;;;;;7.00;6.40;;;4.60;99.90;;;;;;5076018;28;20241;-70
2021/01/31 00:05:06;;;;;;;5.90;5.50;;;4.50;99.90;;;;;;5070551;28;20186;-71
2021/01/31 00:07:31;;;;;;;6.17;5.67;;;4.50;99.90;;;;;;5071556;28;20221;-72
2021/01/31 00:09:57;;;;;;;5.87;5.47;;;4.50;99.90;;;;;;5077866;28;20200;-72
2021/01/31 00:12:23;;;;;;;6.00;5.60;;;4.40;99.90;;;;;;5071492;28;20530;-71
2021/01/31 00:14:48;;;;;;;5.93;5.53;;;4.40;99.90;;;;;;5081484;28;20182;-71
2021/01/31 00:17:14;;;;;;;6.63;6.13;;;4.30;99.90;;;;;;5073459;28;20182;-71
2021/01/31 00:19:39;;;;;;;6.63;6.03;;;4.30;99.90;;;;;;5072254;28;20216;-71
2021/01/31 00:22:05;;;;;;;6.60;6.10;;;4.30;99.90;;;;;;5081796;28;20201;-71
2021/01/31 00:24:31;;;;;;;5.57;5.17;;;4.30;99.90;;;;;;5070961;28;20746;-71
2021/01/31 00:26:57;;;;;;;6.37;5.87;;;4.20;99.90;;;;;;5084618;28;20214;-72
2021/01/31 00:29:23;;;;;;;7.33;6.73;;;4.20;99.90;;;;;;5079504;28;20210;-72
2021/01/31 00:31:49;;;;;;;6.97;6.47;;;4.20;99.90;;;;;;5071082;28;20184;-70
2021/01/31 00:34:17;;;;;;;7.20;6.57;;;4.20;99.90;;;;;;5070807;28;20190;-72
2021/01/31 00:36:44;;;;;;;7.00;6.50;;;4.20;99.90;;;;;;5073225;28;20182;-72
2021/01/31 00:39:10;;;;;;;7.40;6.80;;;4.20;99.90;;;;;;5081298;28;20217;-72
2021/01/31 00:41:36;;;;;;;7.37;6.77;;;4.20;99.90;;;;;;5070732;28;20216;-71
2021/01/31 00:44:03;;;;;;;7.13;6.53;;;4.20;99.90;;;;;;5081629;28;20195;-71
2021/01/31 00:46:32;;;;;;;7.17;6.57;;;4.20;99.90;;;;;;5082600;28;20747;-70
2021/01/31 00:48:58;;;;;;;7.83;7.23;;;4.20;99.90;;;;;;5069493;28;20175;-72
2021/01/31 00:51:23;;;;;;;8.00;7.17;;;4.20;99.90;;;;;;5073195;28;20218;-71
2021/01/31 00:53:49;;;;;;;8.13;7.33;;;4.10;99.90;;;;;;5082123;28;20191;-71
2021/01/31 00:56:15;;;;;;;7.73;7.13;;;4.10;99.90;;;;;;5075916;28;20574;-71
2021/01/31 00:58:42;;;;;;;8.00;7.30;;;4.10;99.90;;;;;;5072634;28;20191;-72
2021/01/31 01:01:08;;;;;;;7.90;7.20;;;4.10;99.90;;;;;;5080105;28;20213;-71
2021/01/31 01:03:34;;;;;;;8.63;7.83;;;4.10;99.90;;;;;;5091957;28;20548;-71
2021/01/31 01:05:59;;;;;;;7.90;7.30;;;4.10;99.90;;;;;;5082546;28;20213;-71
2021/01/31 01:08:25;;;;;;;7.73;7.10;;;4.10;99.90;;;;;;5072849;28;20241;-71
2021/01/31 01:10:50;;;;;;;8.63;7.90;;;4.00;99.90;;;;;;5079636;28;20214;-71
2021/01/31 01:13:16;;;;;;;10.47;9.57;;;4.00;99.90;;;;;;5073872;28;20212;-72
2021/01/31 01:15:41;;;;;;;10.03;9.13;;;4.00;99.90;;;;;;5073430;28;20184;-70
2021/01/31 01:18:07;;;;;;;9.70;8.90;;;4.00;99.90;;;;;;5085328;28;20225;-71
2021/01/31 01:20:33;;;;;;;9.93;9.03;;;4.00;99.90;;;;;;5072394;28;20217;-72
2021/01/31 01:22:58;;;;;;;10.27;9.43;;;4.00;99.90;;;;;;5073486;28;20192;-70
2021/01/31 01:25:25;;;;;;;9.40;8.50;;;4.00;99.90;;;;;;5084896;28;20211;-72
2021/01/31 01:27:50;;;;;;;10.07;9.10;;;4.00;99.90;;;;;;5079183;28;20190;-72
2021/01/31 01:30:20;;;;;;;10.50;9.37;;;4.00;99.90;;;;;;5073201;28;20211;-72
2021/01/31 01:32:46;;;;;;;11.97;10.23;;;3.90;99.90;;;;;;5084888;28;20191;-72
2021/01/31 01:35:12;;;;;;;11.17;10.10;;;4.00;99.90;;;;;;5082913;28;20769;-72
2021/01/31 01:37:38;;;;;;;11.67;10.40;;;4.00;99.90;;;;;;5073882;28;20201;-73
2021/01/31 01:40:06;;;;;;;11.33;10.07;;;4.00;99.90;;;;;;5084833;28;20214;-71
2021/01/31 01:42:32;;;;;;;12.10;9.97;;;4.00;99.90;;;;;;5073888;28;20190;-70
2021/01/31 01:44:57;;;;;;;11.60;9.73;;;4.00;99.90;;;;;;5074604;28;20180;-71
2021/01/31 01:47:26;;;;;;;11.57;10.37;;;4.00;99.90;;;;;;5073168;28;20210;-71
2021/01/31 01:49:57;;;;;;;10.57;9.67;;;3.90;99.90;;;;;;5075070;28;20695;-71
2021/01/31 01:52:33;;;;;;;11.77;10.77;;;3.90;99.90;;;;;;5084858;28;20204;-71
2021/01/31 01:55:04;;;;;;;11.30;10.13;;;3.90;99.90;;;;;;5071900;28;20220;-71
2021/01/31 01:57:36;;;;;;;10.87;9.97;;;3.90;99.90;;;;;;5087328;28;20270;-72
2021/01/31 02:00:05;;;;;;;11.13;10.13;;;3.80;99.90;;;;;;5088139;28;20212;-70
2021/01/31 02:02:53;;;;;;;11.90;10.90;;;3.80;99.90;;;;;;5073138;28;20854;-71
2021/01/31 02:05:19;;;;;;;12.77;11.47;;;3.80;99.90;;;;;;5068572;28;20634;-72
2021/01/31 02:07:44;;;;;;;13.20;10.83;;;3.80;99.90;;;;;;5072873;28;20182;-72
2021/01/31 02:10:15;;;;;;;10.60;9.70;;;3.80;99.90;;;;;;5077992;28;20194;-71
2021/01/31 02:12:41;;;;;;;11.20;10.27;;;3.80;99.90;;;;;;5074357;28;20659;-71
2021/01/31 02:15:10;;;;;;;11.07;10.07;;;3.80;99.90;;;;;;5086244;28;20188;-71
2021/01/31 02:18:10;;;;;;;11.83;10.83;;;3.80;99.90;;;;;;5072379;28;20185;-71
2021/01/31 02:21:23;;;;;;;11.57;10.50;;;3.70;99.90;;;;;;5072199;28;20292;-71
2021/01/31 02:23:54;;;;;;;11.57;10.37;;;3.80;99.90;;;;;;5072650;28;20176;-71
2021/01/31 02:26:58;;;;;;;11.47;10.37;;;3.70;99.90;;;;;;5085697;28;20640;-72
2021/01/31 02:29:45;;;;;;;11.00;9.93;;;3.70;99.90;;;;;;5071299;28;20215;-72
2021/01/31 02:32:19;;;;;;;12.27;11.20;;;3.70;99.90;;;;;;5072979;28;20226;-72
2021/01/31 02:34:56;;;;;;;10.93;10.03;;;3.70;99.90;;;;;;5074690;28;20180;-73
2021/01/31 02:37:40;;;;;;;11.33;10.27;;;3.80;99.90;;;;;;5073014;28;20202;-72
2021/01/31 02:40:23;;;;;;;12.00;10.90;;;3.70;99.90;;;;;;5069648;28;20266;-71
2021/01/31 02:43:02;;;;;;;11.53;10.50;;;3.70;99.90;;;;;;5080581;28;20181;-71
2021/01/31 02:45:35;;;;;;;12.33;10.13;;;3.70;99.90;;;;;;5069619;28;20709;-71
2021/01/31 02:48:06;;;;;;;11.13;10.13;;;3.70;99.90;;;;;;5070748;28;20264;-70
2021/01/31 02:50:40;;;;;;;11.90;10.83;;;3.70;99.90;;;;;;5071742;28;20205;-72
2021/01/31 02:53:20;;;;;;;11.83;10.73;;;3.70;99.90;;;;;;5074345;28;20178;-72
2021/01/31 02:55:51;;;;;;;11.70;10.70;;;3.70;99.90;;;;;;5071963;28;20662;-71
2021/01/31 02:58:23;;;;;;;11.30;10.30;;;3.80;99.90;;;;;;5077821;28;20177;-72
2021/01/31 03:01:16;;;;;;;11.90;10.73;;;3.70;99.90;;;;;;5073528;28;20960;-70
2021/01/31 03:03:57;;;;;;;11.87;10.80;;;3.70;99.90;;;;;;5074719;28;20180;-72
2021/01/31 03:06:29;;;;;;;12.17;11.07;;;3.70;99.90;;;;;;5069046;28;20209;-72
2021/01/31 03:09:03;;;;;;;11.87;10.77;;;3.70;99.90;;;;;;5069010;28;20250;-71
2021/01/31 03:11:39;;;;;;;11.43;10.43;;;3.70;99.90;;;;;;5082010;28;20570;-72
2021/01/31 03:14:12;;;;;;;11.87;10.87;;;3.70;99.90;;;;;;5085293;28;20176;-70
2021/01/31 03:17:10;;;;;;;11.63;10.23;;;3.70;99.90;;;;;;5077426;28;20228;-72
2021/01/31 03:19:47;;;;;;;12.97;11.73;;;3.60;99.90;;;;;;5024113;28;20233;-72
2021/01/31 03:22:19;;;;;;;11.50;10.50;;;3.60;99.90;;;;;;5077452;28;20197;-72
2021/01/31 03:24:52;;;;;;;12.57;11.47;;;3.50;99.90;;;;;;5072067;28;20181;-72
2021/01/31 03:27:24;;;;;;;12.30;11.20;;;3.50;99.90;;;;;;5074358;28;20214;-72
2021/01/31 03:29:50;;;;;;;13.27;11.90;;;3.60;99.90;;;;;;5081823;28;20673;-72
2021/01/31 03:32:26;;;;;;;12.40;11.23;;;3.60;99.90;;;;;;5082392;28;20266;-72
2021/01/31 03:34:59;;;;;;;12.53;11.33;;;3.50;99.90;;;;;;5068130;28;20667;-72
2021/01/31 03:37:33;;;;;;;13.00;11.70;;;3.60;99.90;;;;;;5073820;28;20228;-71
2021/01/31 03:39:59;;;;;;;13.23;12.03;;;3.50;99.90;;;;;;5079190;28;20204;-71
2021/01/31 03:42:25;;;;;;;12.53;11.33;;;3.50;99.90;;;;;;5079725;28;20180;-72
2021/01/31 03:44:53;;;;;;;12.30;11.30;;;3.50;99.90;;;;;;5076898;28;20181;-71
2021/01/31 03:47:32;;;;;;;12.77;11.47;;;3.50;99.90;;;;;;5067025;28;20690;-72
2021/01/31 03:49:59;;;;;;;11.87;10.87;;;3.50;99.90;;;;;;5077658;28;20560;-72
2021/01/31 03:52:25;;;;;;;12.33;11.27;;;3.50;99.90;;;;;;5074716;28;20185;-71
2021/01/31 03:54:52;;;;;;;11.70;10.70;;;3.40;99.90;;;;;;5072242;28;20262;-71
2021/01/31 03:57:50;;;;;;;11.80;10.70;;;3.40;99.90;;;;;;5090237;28;20190;-71
2021/01/31 04:00:26;;;;;;;12.73;11.63;;;3.40;99.90;;;;;;4989077;28;20733;-72
2021/01/31 04:03:16;;;;;;;12.40;11.30;;;3.40;99.90;;;;;;5009678;28;20631;-72
2021/01/31 04:06:01;;;;;;;11.83;10.63;;;3.40;99.90;;;;;;5008630;28;20210;-71
2021/01/31 04:08:29;;;;;;;12.07;10.90;;;3.30;99.90;;;;;;5004454;28;20185;-72
2021/01/31 04:10:55;;;;;;;12.60;11.50;;;3.30;99.90;;;;;;5012676;28;20223;-72
2021/01/31 04:13:22;;;;;;;12.80;11.70;;;3.30;99.90;;;;;;5003133;28;20183;-72
2021/01/31 04:15:53;;;;;;;13.40;12.20;;;3.30;99.90;;;;;;5017782;28;20191;-72
2021/01/31 04:18:20;;;;;;;12.80;11.60;;;3.30;99.90;;;;;;5008587;28;20221;-71
2021/01/31 04:20:48;;;;;;;12.87;11.67;;;3.30;99.90;;;;;;5014183;28;20240;-72
2021/01/31 04:23:13;;;;;;;13.37;11.80;;;3.30;99.90;;;;;;5009822;28;20287;-71
2021/01/31 04:25:39;;;;;;;14.37;12.97;;;3.30;99.90;;;;;;5011376;28;20245;-72
2021/01/31 04:28:25;;;;;;;13.03;11.73;;;3.20;99.90;;;;;;4984805;28;20192;-71
2021/01/31 04:30:59;;;;;;;13.57;12.27;;;3.30;99.90;;;;;;5006307;28;20254;-72
2021/01/31 04:33:26;;;;;;;13.27;11.70;;;3.30;99.90;;;;;;5010130;28;20179;-71
2021/01/31 04:35:52;;;;;;;12.70;11.50;;;3.30;99.90;;;;;;5033117;28;20206;-72
2021/01/31 04:38:18;;;;;;;12.47;11.27;;;3.30;99.90;;;;;;5102901;28;20199;-73
2021/01/31 04:40:44;;;;;;;12.93;11.73;;;3.30;99.90;;;;;;5094198;28;20205;-72
2021/01/31 04:43:13;;;;;;;13.60;12.30;;;3.40;99.90;;;;;;5093897;28;20263;-70
2021/01/31 04:45:40;;;;;;;13.20;12.00;;;3.30;99.90;;;;;;5101449;28;20197;-70
2021/01/31 04:48:15;;;;;;;13.57;12.27;;;3.30;99.90;;;;;;5081233;28;20198;-70
2021/01/31 04:51:04;;;;;;;13.10;11.80;;;3.30;99.90;;;;;;5072734;28;20191;-70
2021/01/31 04:53:33;;;;;;;12.27;11.00;;;3.30;99.90;;;;;;5085666;28;20184;-70
2021/01/31 04:56:07;;;;;;;12.80;11.60;;;3.30;99.90;;;;;;5082590;28;20193;-69
2021/01/31 04:58:49;;;;;;;13.80;12.50;;;3.30;99.90;;;;;;5076344;28;20182;-71
2021/01/31 05:01:24;;;;;;;14.37;12.97;;;3.30;99.90;;;;;;5064018;28;20309;-72
2021/01/31 05:04:03;;;;;;;12.70;11.50;;;3.30;99.90;;;;;;5076195;28;20189;-72
2021/01/31 05:06:37;;;;;;;13.90;12.70;;;3.30;99.90;;;;;;5087700;28;20200;-72
2021/01/31 05:09:05;;;;;;;13.00;11.80;;;3.30;99.90;;;;;;5089297;28;20184;-70
2021/01/31 05:11:43;;;;;;;13.17;11.97;;;3.30;99.90;;;;;;5081884;28;20619;-72
2021/01/31 05:14:34;;;;;;;11.13;10.03;;;3.30;99.90;;;;;;5091059;28;20177;-71
2021/01/31 05:16:59;;;;;;;11.97;10.87;;;3.30;99.90;;;;;;5094005;28;20203;-70
2021/01/31 05:19:30;;;;;;;12.30;11.03;;;3.30;99.90;;;;;;5094489;28;20213;-71
2021/01/31 05:21:57;;;;;;;11.73;10.63;;;3.30;99.90;;;;;;5087887;28;20205;-72
2021/01/31 05:24:24;;;;;;;12.53;11.43;;;3.30;99.90;;;;;;5095531;28;20196;-73
2021/01/31 05:27:02;;;;;;;13.13;11.93;;;3.30;99.90;;;;;;5086624;28;20217;-72
2021/01/31 05:29:39;;;;;;;13.13;11.83;;;3.30;99.90;;;;;;5093384;28;20204;-73
2021/01/31 05:32:14;;;;;;;11.90;10.80;;;3.30;99.90;;;;;;5100549;28;20662;-70
2021/01/31 05:34:45;;;;;;;12.60;11.40;;;3.20;99.90;;;;;;5087086;28;20676;-71
2021/01/31 05:37:16;;;;;;;12.60;11.30;;;3.30;99.90;;;;;;5083975;28;20192;-70
2021/01/31 05:39:53;;;;;;;12.23;11.03;;;3.30;99.90;;;;;;5077648;28;20215;-71
2021/01/31 05:42:23;;;;;;;12.40;11.30;;;3.30;99.90;;;;;;5083417;28;20211;-70
2021/01/31 05:45:03;;;;;;;12.03;10.93;;;3.20;99.90;;;;;;5082835;28;20208;-70
2021/01/31 05:47:50;;;;;;;12.73;11.53;;;3.20;99.90;;;;;;5068961;28;20247;-69
2021/01/31 05:50:40;;;;;;;12.77;11.40;;;3.20;99.90;;;;;;5085093;28;20207;-71
2021/01/31 05:53:33;;;;;;;14.03;12.73;;;3.10;99.90;;;;;;5065154;28;20507;-71
2021/01/31 05:56:22;;;;;;;13.10;11.80;;;3.10;99.90;;;;;;5074991;28;20643;-71
2021/01/31 05:58:49;;;;;;;14.73;13.30;;;3.20;99.90;;;;;;5073280;28;20186;-71
2021/01/31 06:01:15;;;;;;;14.80;13.37;;;3.20;99.90;;;;;;5090068;28;20194;-71
2021/01/31 06:03:41;;;;;;;13.43;12.13;;;3.20;99.90;;;;;;5086619;28;20186;-72
2021/01/31 06:06:08;;;;;;;13.30;12.10;;;3.30;99.90;;;;;;5090755;28;20265;-71
2021/01/31 06:08:34;;;;;;;13.57;12.33;;;3.20;99.90;;;;;;5080189;28;20202;-70
2021/01/31 06:11:09;;;;;;;13.07;11.83;;;3.20;99.90;;;;;;5079067;28;20271;-71
2021/01/31 06:13:36;;;;;;;12.83;11.60;;;3.20;99.90;;;;;;5080049;28;20200;-71
2021/01/31 06:16:05;;;;;;;13.53;12.13;;;3.30;99.90;;;;;;5085076;28;20193;-71
2021/01/31 06:18:38;;;;;;;13.40;12.13;;;3.20;99.90;;;;;;5071260;28;20202;-71
2021/01/31 06:21:16;;;;;;;12.13;11.00;;;3.20;99.90;;;;;;5081483;28;20210;-72
2021/01/31 06:23:48;;;;;;;12.73;11.47;;;3.20;99.90;;;;;;5083440;28;20187;-72
2021/01/31 06:26:28;;;;;;;11.37;10.37;;;3.20;99.90;;;;;;5075519;28;20208;-72
2021/01/31 06:29:01;;;;;;;12.37;11.23;;;3.20;99.90;;;;;;5083582;28;20181;-71
2021/01/31 06:31:57;;;;;;;11.67;10.57;;;3.20;99.90;;;;;;5070285;28;20186;-71
2021/01/31 06:34:23;;;;;;;11.77;10.70;;;3.20;99.90;;;;;;5068527;28;20264;-71
2021/01/31 06:37:07;;;;;;;13.60;12.30;;;3.10;99.90;;;;;;5083701;28;20211;-71
2021/01/31 06:39:41;;;;;;;13.27;11.67;;;3.20;99.90;;;;;;5072534;28;20217;-71
2021/01/31 06:42:46;;;;;;;13.77;12.47;;;3.20;99.90;;;;;;5087269;28;20180;-70
2021/01/31 06:45:33;;;;;;;27.47;24.57;;;3.20;99.90;;;;;;4992133;28;20206;-70
2021/01/31 06:48:16;;;;;;;16.67;15.17;;;3.20;99.90;;;;;;4988167;28;20208;-73
2021/01/31 06:51:00;;;;;;;14.07;12.87;;;3.10;99.90;;;;;;4997003;28;20216;-72
2021/01/31 06:53:47;;;;;;;13.90;12.63;;;3.20;99.90;;;;;;4993960;28;20189;-72
2021/01/31 06:56:26;;;;;;;14.17;12.77;;;3.20;99.90;;;;;;4993387;28;20634;-71
2021/01/31 06:59:08;;;;;;;13.03;11.73;;;3.20;99.90;;;;;;5001728;28;20186;-70
2021/01/31 07:02:01;;;;;;;44.07;40.00;;;3.20;99.90;;;;;;4996022;28;20209;-69
2021/01/31 07:04:45;;;;;;;44.03;40.33;;;3.20;99.90;;;;;;5003677;28;20198;-72
2021/01/31 07:07:48;;;;;;;17.30;15.80;;;3.20;99.90;;;;;;4990951;28;20211;-71
2021/01/31 07:10:18;;;;;;;13.30;12.00;;;3.30;99.90;;;;;;4989868;28;20232;-70
2021/01/31 07:12:52;;;;;;;13.50;12.20;;;3.20;99.90;;;;;;4998635;28;20179;-69
2021/01/31 07:15:20;;;;;;;11.37;10.13;;;3.20;99.90;;;;;;4995061;28;20737;-71
2021/01/31 07:17:50;;;;;;;11.93;10.87;;;3.20;99.90;;;;;;4996860;28;20657;-70
2021/01/31 07:20:26;;;;;;;12.77;11.57;;;3.20;99.90;;;;;;4997680;28;20251;-70
2021/01/31 07:23:18;;;;;;;11.80;10.83;;;3.30;99.90;;;;;;5064800;28;20643;-70
2021/01/31 07:25:54;;;;;;;13.07;11.70;;;3.30;99.90;;;;;;5061888;28;20564;-70
2021/01/31 07:28:38;;;;;;;15.17;13.57;;;3.30;99.90;;;;;;5065023;28;20330;-70
2021/01/31 07:31:27;;;;;;;14.13;12.53;;;3.30;99.90;;;;;;5080592;28;20292;-71
2021/01/31 07:34:00;;;;;;;13.73;12.43;;;3.40;99.90;;;;;;5066034;28;20222;-70
2021/01/31 07:36:35;;;;;;;12.73;11.53;;;3.40;99.90;;;;;;5071571;28;20192;-71
2021/01/31 07:39:06;;;;;;;11.80;10.80;;;3.40;99.90;;;;;;5080379;28;20192;-70
2021/01/31 07:41:34;;;;;;;12.30;11.20;;;3.40;99.90;;;;;;5076577;28;20672;-70
2021/01/31 07:44:10;;;;;;;10.97;9.97;;;3.40;99.90;;;;;;5071580;28;20608;-70
2021/01/31 07:46:37;;;;;;;12.83;11.73;;;3.40;99.90;;;;;;5070509;28;20728;-70
2021/01/31 07:49:05;;;;;;;10.50;9.60;;;3.50;99.90;;;;;;5068422;28;20199;-70
2021/01/31 07:51:36;;;;;;;11.07;10.13;;;3.50;99.90;;;;;;5069035;28;20171;-70
2021/01/31 07:54:20;;;;;;;10.43;9.53;;;3.50;99.90;;;;;;5068352;28;20182;-72
2021/01/31 07:56:46;;;;;;;10.40;9.53;;;3.50;99.90;;;;;;5069315;28;20180;-70
2021/01/31 07:59:11;;;;;;;11.33;10.30;;;3.50;99.90;;;;;;5067037;28;20180;-70
2021/01/31 08:01:40;;;;;;;10.23;9.43;;;3.50;99.90;;;;;;5074834;28;20197;-71
2021/01/31 08:04:17;;;;;;;12.00;10.90;;;3.50;99.90;;;;;;5073309;28;20842;-71
2021/01/31 08:06:46;;;;;;;10.90;10.00;;;3.50;99.90;;;;;;5070250;28;20209;-71
2021/01/31 08:09:27;;;;;;;9.87;8.97;;;3.60;99.90;;;;;;5069374;28;20172;-71
2021/01/31 08:12:06;;;;;;;11.37;10.37;;;3.60;99.90;;;;;;5077601;28;20214;-70
2021/01/31 08:15:09;;;;;;;14.27;12.87;;;3.60;99.90;;;;;;5070626;28;20544;-70
2021/01/31 08:17:52;;;;;;;13.00;11.80;;;3.60;99.90;;;;;;5069484;28;20262;-70
2021/01/31 08:20:27;;;;;;;12.60;11.50;;;3.60;99.90;;;;;;5080823;28;20233;-70
2021/01/31 08:23:22;;;;;;;11.80;10.80;;;3.60;99.90;;;;;;5070002;28;20184;-70
2021/01/31 08:26:01;;;;;;;11.43;10.43;;;3.70;99.90;;;;;;5067124;28;20220;-69
2021/01/31 08:28:29;;;;;;;11.60;10.60;;;3.70;99.90;;;;;;5067826;28;20539;-70
2021/01/31 08:31:15;;;;;;;12.47;11.40;;;3.70;99.90;;;;;;5069373;28;20204;-69
2021/01/31 08:33:42;;;;;;;13.33;12.13;;;3.80;99.90;;;;;;5063648;28;20208;-69
2021/01/31 08:36:20;;;;;;;11.33;10.43;;;3.80;99.90;;;;;;5071031;28;20189;-70
2021/01/31 08:38:52;;;;;;;11.00;10.00;;;3.80;99.90;;;;;;5070023;28;20268;-70
2021/01/31 08:41:40;;;;;;;10.60;9.80;;;3.90;99.90;;;;;;5062495;28;20547;-70
2021/01/31 08:44:11;;;;;;;10.80;9.77;;;3.90;99.90;;;;;;5059812;28;20212;-68
2021/01/31 08:46:59;;;;;;;11.83;10.83;;;3.90;99.90;;;;;;5074027;28;20359;-68
2021/01/31 08:49:24;;;;;;;12.73;11.53;;;3.90;99.90;;;;;;5061698;28;20198;-69
2021/01/31 08:52:05;;;;;;;12.70;11.50;;;4.00;99.90;;;;;;5068735;28;20834;-70
2021/01/31 08:54:31;;;;;;;11.67;10.67;;;4.20;99.90;;;;;;5062170;28;20281;-70
2021/01/31 08:57:03;;;;;;;11.33;10.37;;;4.30;99.90;;;;;;5060807;28;20707;-68
2021/01/31 08:59:38;;;;;;;11.80;10.70;;;4.30;99.90;;;;;;5058241;28;20234;-68
2021/01/31 09:02:18;;;;;;;11.53;10.43;;;4.40;99.90;;;;;;5064219;28;20184;-70
2021/01/31 09:05:09;;;;;;;12.53;11.43;;;4.40;99.90;;;;;;5058388;28;20175;-67
2021/01/31 09:07:38;;;;;;;11.60;10.50;;;4.40;99.90;;;;;;5062115;28;20219;-69
2021/01/31 09:10:20;;;;;;;11.43;10.33;;;4.40;99.90;;;;;;5069559;28;20202;-69
2021/01/31 09:12:46;;;;;;;12.57;11.47;;;4.40;99.90;;;;;;5083758;28;20262;-69
2021/01/31 09:15:14;;;;;;;12.10;11.00;;;4.40;99.90;;;;;;5082934;28;20173;-69
2021/01/31 09:17:41;;;;;;;11.53;10.43;;;4.40;99.90;;;;;;5069136;28;20192;-69
2021/01/31 09:20:27;;;;;;;12.60;11.50;;;4.40;99.90;;;;;;5070710;28;20203;-68
2021/01/31 09:22:57;;;;;;;12.33;11.23;;;4.40;99.90;;;;;;5069394;28;20673;-70
2021/01/31 09:25:24;;;;;;;12.33;11.23;;;4.40;99.90;;;;;;5067219;28;20649;-69
2021/01/31 09:28:04;;;;;;;13.50;12.20;;;4.40;99.90;;;;;;5061036;28;20743;-69
2021/01/31 09:30:31;;;;;;;11.43;10.30;;;4.50;99.90;;;;;;5070876;28;20213;-69
2021/01/31 09:33:25;;;;;;;12.17;10.97;;;4.60;99.90;;;;;;5073229;28;20167;-69
2021/01/31 09:35:50;;;;;;;12.90;11.70;;;4.60;99.90;;;;;;5060120;28;20261;-69
2021/01/31 09:38:28;;;;;;;13.00;11.23;;;4.70;99.90;;;;;;5072650;28;20786;-70
2021/01/31 09:40:56;;;;;;;11.73;10.73;;;4.80;99.90;;;;;;5069428;28;20197;-70
2021/01/31 09:43:26;;;;;;;11.53;10.53;;;4.90;99.90;;;;;;5069902;28;20169;-69
2021/01/31 09:45:55;;;;;;;13.20;12.00;;;5.00;99.90;;;;;;5066750;28;20201;-71
2021/01/31 09:48:24;;;;;;;15.40;13.90;;;5.10;99.90;;;;;;5070834;28;20178;-69
2021/01/31 09:50:56;;;;;;;14.53;13.03;;;5.10;99.90;;;;;;5076678;28;20194;-68
2021/01/31 09:53:38;;;;;;;13.97;12.67;;;5.10;99.90;;;;;;5074156;28;20177;-70
2021/01/31 09:56:05;;;;;;;13.97;12.67;;;5.10;99.90;;;;;;5070849;28;20307;-70
2021/01/31 09:58:47;;;;;;;15.30;13.77;;;5.20;99.90;;;;;;5079277;28;20252;-69
2021/01/31 10:01:23;;;;;;;19.17;16.57;;;5.30;99.90;;;;;;5076580;28;20277;-69
2021/01/31 10:04:05;;;;;;;16.83;15.10;;;5.40;99.90;;;;;;5088550;28;20185;-69
2021/01/31 10:06:42;;;;;;;15.27;13.80;;;5.60;99.90;;;;;;5064912;28;20653;-70
2021/01/31 10:09:08;;;;;;;15.00;13.50;;;5.70;99.90;;;;;;5066904;28;20219;-70
2021/01/31 10:11:44;;;;;;;26.37;17.80;;;5.70;99.80;;;;;;5065828;28;20183;-70
2021/01/31 10:14:39;;;;;;;32.17;19.33;;;5.90;99.90;;;;;;5074702;28;20173;-68
2021/01/31 10:17:17;;;;;;;24.03;16.37;;;6.10;99.90;;;;;;5061411;28;20197;-68
2021/01/31 10:19:42;;;;;;;29.43;17.87;;;6.10;99.10;;;;;;5066707;28;20213;-67
2021/01/31 10:22:25;;;;;;;19.97;15.20;;;5.90;99.60;;;;;;5064673;28;20199;-70
2021/01/31 10:24:52;;;;;;;18.03;13.83;;;5.60;99.80;;;;;;5069942;28;20213;-69
2021/01/31 10:27:22;;;;;;;18.13;14.80;;;5.50;99.90;;;;;;5064086;28;20207;-69
2021/01/31 10:29:49;;;;;;;14.53;13.13;;;5.60;99.90;;;;;;5068221;28;20297;-70
2021/01/31 10:32:19;;;;;;;12.67;11.43;;;5.80;99.70;;;;;;5064996;28;20659;-68
2021/01/31 10:34:44;;;;;;;13.03;11.73;;;6.00;98.80;;;;;;5073697;28;20233;-68
2021/01/31 10:37:13;;;;;;;12.70;11.50;;;5.90;99.00;;;;;;5075798;28;20193;-70
2021/01/31 10:39:38;;;;;;;13.20;11.90;;;5.80;99.20;;;;;;5063052;28;20214;-68
2021/01/31 10:42:04;;;;;;;14.07;12.67;;;5.80;99.20;;;;;;5083273;28;20181;-68
2021/01/31 10:44:30;;;;;;;14.63;13.17;;;5.60;99.40;;;;;;5076961;28;20204;-68
2021/01/31 10:46:55;;;;;;;13.37;12.07;;;5.70;99.90;;;;;;5074601;28;20217;-69
2021/01/31 10:49:22;;;;;;;11.83;10.73;;;5.90;98.90;;;;;;5069489;28;20203;-68
2021/01/31 10:51:48;;;;;;;12.63;11.53;;;6.00;98.50;;;;;;5072409;28;20193;-68
2021/01/31 10:54:16;;;;;;;12.63;11.50;;;6.20;98.70;;;;;;5070226;28;20182;-68
2021/01/31 10:56:42;;;;;;;11.70;10.60;;;6.40;98.30;;;;;;5073004;28;20259;-69
2021/01/31 10:59:07;;;;;;;11.90;10.80;;;6.60;97.20;;;;;;5067035;28;20226;-69
2021/01/31 11:01:33;;;;;;;11.93;10.73;;;6.70;96.90;;;;;;5067267;28;20191;-71
2021/01/31 11:03:59;;;;;;;12.47;11.23;;;6.80;96.80;;;;;;5069742;28;20182;-70
2021/01/31 11:06:27;;;;;;;13.07;11.87;;;7.00;96.60;;;;;;5069484;28;20222;-69
2021/01/31 11:08:53;;;;;;;13.77;12.47;;;7.00;97.20;;;;;;5071758;28;20688;-70
2021/01/31 11:11:20;;;;;;;13.33;12.03;;;7.00;97.40;;;;;;5065014;28;20187;-69
2021/01/31 11:13:46;;;;;;;13.13;11.80;;;7.10;97.60;;;;;;5072129;28;20215;-70
2021/01/31 11:16:12;;;;;;;12.47;11.37;;;7.00;96.40;;;;;;5077012;28;20179;-69
2021/01/31 11:18:39;;;;;;;12.53;11.23;;;7.00;96.70;;;;;;5066546;28;21751;-69
2021/01/31 11:21:05;;;;;;;13.83;12.53;;;6.90;97.00;;;;;;5078786;28;20232;-68
2021/01/31 11:23:31;;;;;;;11.87;10.77;;;6.80;97.60;;;;;;5086424;28;20175;-68
2021/01/31 11:25:56;;;;;;;14.37;12.97;;;6.80;96.60;;;;;;5077762;28;20705;-67
2021/01/31 11:28:23;;;;;;;15.23;13.63;;;6.80;96.80;;;;;;5066989;28;20294;-71
2021/01/31 11:30:48;;;;;;;16.23;14.63;;;7.00;97.80;;;;;;5088159;28;20230;-70
2021/01/31 11:33:14;;;;;;;14.37;12.90;;;7.00;96.90;;;;;;5075441;28;20261;-69
2021/01/31 11:35:40;;;;;;;14.60;12.20;;;7.00;96.80;;;;;;5082323;28;20179;-68
2021/01/31 11:38:07;;;;;;;12.53;11.40;;;7.00;96.50;;;;;;5082319;28;20213;-69
2021/01/31 11:40:33;;;;;;;11.57;10.57;;;6.90;96.60;;;;;;5068056;28;20230;-69
2021/01/31 11:42:59;;;;;;;16.77;15.07;;;6.90;95.80;;;;;;5068566;28;20185;-68
2021/01/31 11:45:27;;;;;;;19.87;17.30;;;6.90;97.30;;;;;;5063124;28;20183;-67
2021/01/31 11:47:52;;;;;;;29.53;22.57;;;7.00;96.80;;;;;;5062546;28;20250;-66
2021/01/31 11:50:19;;;;;;;23.73;19.67;;;7.10;96.30;;;;;;5065975;28;20206;-67
2021/01/31 11:52:45;;;;;;;17.60;15.77;;;6.90;97.30;;;;;;5062484;28;20190;-68
2021/01/31 11:55:12;;;;;;;17.30;15.50;;;6.80;96.60;;;;;;5065915;28;20677;-70
2021/01/31 11:57:38;;;;;;;18.60;16.70;;;6.70;97.20;;;;;;5067059;28;20183;-67
2021/01/31 12:00:15;;;;;;;21.07;18.87;;;6.70;96.70;;;;;;5062216;28;20217;-67
2021/01/31 12:02:40;;;;;;;17.80;14.63;;;6.50;97.30;;;;;;5064468;28;20190;-69
2021/01/31 12:05:11;;;;;;;15.70;14.20;;;6.40;97.60;;;;;;5062716;28;20195;-70
2021/01/31 12:07:37;;;;;;;15.10;13.60;;;6.30;98.30;;;;;;5071198;28;20245;-68
2021/01/31 12:10:05;;;;;;;14.63;13.23;;;6.20;98.60;;;;;;5068875;28;20209;-69
2021/01/31 12:12:30;;;;;;;14.40;13.03;;;6.10;98.60;;;;;;5073465;28;20179;-67
2021/01/31 12:14:56;;;;;;;15.53;13.87;;;6.00;99.00;;;;;;5068908;28;20906;-69
2021/01/31 12:17:22;;;;;;;17.40;15.70;;;6.00;99.70;;;;;;5068430;28;20188;-70
2021/01/31 12:19:47;;;;;;;19.20;17.30;;;5.90;99.80;;;;;;5063591;28;20220;-69
2021/01/31 12:22:13;;;;;;;16.07;14.57;;;5.90;99.90;;;;;;5063730;28;20958;-69
2021/01/31 12:24:38;;;;;;;15.67;14.17;;;5.90;99.90;;;;;;5061152;28;20273;-69
2021/01/31 12:27:04;;;;;;;14.13;12.73;;;6.00;99.90;;;;;;5061285;28;20216;-68
2021/01/31 12:29:30;;;;;;;13.53;12.20;;;6.00;99.90;;;;;;5072385;28;20281;-70
2021/01/31 12:31:56;;;;;;;15.07;13.63;;;6.00;99.50;;;;;;5082332;28;20183;-71
2021/01/31 12:34:21;;;;;;;14.73;13.17;;;5.90;99.90;;;;;;5069673;28;20190;-68
2021/01/31 12:36:47;;;;;;;15.17;13.67;;;5.70;99.70;;;;;;5069486;28;20189;-70
2021/01/31 12:39:12;;;;;;;13.77;12.10;;;5.70;99.90;;;;;;5068781;28;20185;-68
2021/01/31 12:41:38;;;;;;;16.63;13.17;;;5.60;99.40;;;;;;5070195;28;20637;-69
2021/01/31 12:44:04;;;;;;;15.33;13.73;;;5.60;99.90;;;;;;5071291;28;20265;-69
2021/01/31 12:46:30;;;;;;;12.90;11.70;;;5.60;99.90;;;;;;5073789;28;20208;-70
2021/01/31 12:48:56;;;;;;;13.53;12.30;;;5.60;99.40;;;;;;5070876;28;20658;-68
2021/01/31 12:51:25;;;;;;;13.23;11.97;;;5.60;99.40;;;;;;5068500;28;20737;-69
2021/01/31 12:53:50;;;;;;;15.03;13.53;;;5.60;99.50;;;;;;5065263;28;20178;-69
2021/01/31 12:56:16;;;;;;;15.17;13.67;;;5.60;99.90;;;;;;5073599;28;20423;-69
2021/01/31 12:58:42;;;;;;;14.27;12.93;;;5.70;99.90;;;;;;5071074;28;20174;-70
2021/01/31 13:01:07;;;;;;;13.80;12.50;;;5.70;99.60;;;;;;5078357;28;20327;-69
2021/01/31 13:03:33;;;;;;;13.70;12.37;;;5.60;99.40;;;;;;5075087;28;20271;-68
2021/01/31 13:06:00;;;;;;;14.03;12.70;;;5.50;99.30;;;;;;5081222;28;20278;-69